Time;durP1;ratioP1;P1;durP2;ratioP2;P2;SDS_P1;SDS_P2;PMS_P1;PMS_P2;Temp;Humidity;BMP_temperature;BMP_pressure;BME280_temperature;BME280_humidity;BME280_pressure;Samples;Min_cycle;Max_cycle;Signal;HPM_P1;HPM_P2
2023/10/28 00:02:16;;;;;;;0.85;0.75;;;;;;;;;;5022602;28;20039;-83
2023/10/28 00:04:42;;;;;;;1.55;0.52;;;;;;;;;;5003969;28;20055;-83
2023/10/28 00:07:09;;;;;;;0.52;0.20;;;;;;;;;;5003800;28;20037;-83
2023/10/28 00:09:40;;;;;;;0.77;0.15;;;;;;;;;;5006171;28;20416;-83
2023/10/28 00:12:08;;;;;;;0.20;0.00;;;;;;;;;;5005371;28;20109;-84
2023/10/28 00:14:37;;;;;;;0.20;0.00;;;;;;;;;;5004347;28;20615;-81
2023/10/28 00:17:03;;;;;;;0.50;0.50;;;;;;;;;;5023809;28;20052;-81
2023/10/28 00:19:29;;;;;;;0.43;0.25;;;;;;;;;;5022688;28;20033;-81
2023/10/28 00:21:55;;;;;;;0.65;0.38;;;;;;;;;;5006770;28;20068;-81
2023/10/28 00:24:22;;;;;;;0.43;0.43;;;;;;;;;;5023557;28;20033;-81
2023/10/28 00:26:48;;;;;;;0.20;0.13;;;;;;;;;;5023263;28;20055;-82
2023/10/28 00:29:14;;;;;;;0.20;0.03;;;;;;;;;;5016380;28;20167;-81
2023/10/28 00:31:40;;;;;;;0.20;0.20;;;;;;;;;;5020393;28;20065;-82
2023/10/28 00:34:06;;;;;;;0.20;0.10;;;;;;;;;;5023535;28;20033;-81
2023/10/28 00:36:32;;;;;;;0.25;0.08;;;;;;;;;;5023520;28;20103;-81
2023/10/28 00:38:58;;;;;;;0.20;0.10;;;;;;;;;;5022688;28;20041;-81
2023/10/28 00:41:24;;;;;;;0.38;0.30;;;;;;;;;;5021092;28;20037;-82
2023/10/28 00:43:50;;;;;;;0.20;0.10;;;;;;;;;;5021429;28;20040;-82
2023/10/28 00:46:16;;;;;;;0.20;0.10;;;;;;;;;;5022552;28;20032;-84
2023/10/28 00:48:42;;;;;;;0.20;0.20;;;;;;;;;;5020535;28;20037;-82
2023/10/28 00:51:09;;;;;;;0.40;0.30;;;;;;;;;;5018682;28;20060;-83
2023/10/28 00:53:35;;;;;;;0.20;0.10;;;;;;;;;;5005185;28;20037;-83
2023/10/28 00:56:01;;;;;;;0.20;0.20;;;;;;;;;;5008192;28;20476;-82
2023/10/28 00:58:28;;;;;;;0.20;0.10;;;;;;;;;;5022805;28;20580;-81
2023/10/28 01:00:54;;;;;;;0.73;0.73;;;;;;;;;;5005714;28;20037;-81
2023/10/28 01:03:20;;;;;;;0.20;0.10;;;;;;;;;;5004199;28;20037;-80
2023/10/28 01:05:46;;;;;;;0.20;0.10;;;;;;;;;;5024870;28;20414;-82
2023/10/28 01:08:12;;;;;;;0.22;0.20;;;;;;;;;;5004829;28;20037;-82
2023/10/28 01:10:40;;;;;;;0.20;0.10;;;;;;;;;;5015882;28;20037;-81
2023/10/28 01:13:08;;;;;;;0.20;0.15;;;;;;;;;;5004419;28;20048;-81
2023/10/28 01:15:34;;;;;;;0.20;0.10;;;;;;;;;;5022193;28;20094;-83
2023/10/28 01:18:00;;;;;;;0.20;0.20;;;;;;;;;;5011021;28;20110;-85
2023/10/28 01:20:26;;;;;;;0.57;0.40;;;;;;;;;;5009713;28;20485;-84
2023/10/28 01:22:53;;;;;;;0.22;0.20;;;;;;;;;;5024186;28;20040;-83
2023/10/28 01:25:20;;;;;;;0.20;0.10;;;;;;;;;;5009174;28;20040;-84
2023/10/28 01:27:46;;;;;;;0.20;0.00;;;;;;;;;;5010657;28;20429;-82
2023/10/28 01:30:13;;;;;;;0.20;0.00;;;;;;;;;;5021516;28;20071;-83
2023/10/28 01:32:40;;;;;;;0.20;0.00;;;;;;;;;;5001088;28;20041;-84
2023/10/28 01:35:09;;;;;;;0.30;0.25;;;;;;;;;;5019439;28;20037;-83
2023/10/28 01:37:37;;;;;;;0.20;0.10;;;;;;;;;;5005260;28;20068;-84
2023/10/28 01:40:09;;;;;;;0.20;0.10;;;;;;;;;;5002315;28;20090;-83
2023/10/28 01:42:35;;;;;;;0.43;0.40;;;;;;;;;;4999898;28;20045;-84
2023/10/28 01:45:01;;;;;;;0.38;0.30;;;;;;;;;;5002979;28;20335;-85
2023/10/28 01:47:28;;;;;;;0.32;0.20;;;;;;;;;;5022551;28;21049;-85
2023/10/28 01:49:58;;;;;;;0.20;0.20;;;;;;;;;;5010705;28;20492;-85
2023/10/28 01:52:25;;;;;;;0.20;0.10;;;;;;;;;;5003567;28;20120;-85
2023/10/28 01:54:51;;;;;;;0.30;0.25;;;;;;;;;;5024543;28;20154;-84
2023/10/28 01:57:18;;;;;;;0.45;0.25;;;;;;;;;;5005211;28;20169;-85
2023/10/28 01:59:44;;;;;;;0.20;0.20;;;;;;;;;;5010206;28;20435;-84
2023/10/28 02:02:10;;;;;;;0.20;0.00;;;;;;;;;;5020632;28;20029;-84
2023/10/28 02:04:36;;;;;;;0.30;0.15;;;;;;;;;;5009321;28;20041;-85
2023/10/28 02:07:04;;;;;;;0.20;0.00;;;;;;;;;;5010563;28;20138;-83
2023/10/28 02:09:33;;;;;;;0.20;0.10;;;;;;;;;;5003733;28;20044;-83
2023/10/28 02:12:02;;;;;;;0.25;0.20;;;;;;;;;;5002898;28;21094;-85
2023/10/28 02:14:28;;;;;;;0.30;0.25;;;;;;;;;;5025600;28;20214;-85
2023/10/28 02:16:59;;;;;;;0.20;0.00;;;;;;;;;;5004692;28;21690;-83
2023/10/28 02:19:25;;;;;;;0.20;0.10;;;;;;;;;;5023487;28;20091;-82
2023/10/28 02:21:51;;;;;;;0.20;0.10;;;;;;;;;;5010090;28;20040;-84
2023/10/28 02:24:20;;;;;;;0.55;0.38;;;;;;;;;;5027602;28;20044;-84
2023/10/28 02:26:52;;;;;;;0.20;0.10;;;;;;;;;;5004953;28;20402;-84
2023/10/28 02:29:18;;;;;;;0.57;0.35;;;;;;;;;;5024774;28;20288;-85
2023/10/28 02:31:44;;;;;;;0.20;0.20;;;;;;;;;;5025598;28;20094;-83
2023/10/28 02:34:13;;;;;;;0.30;0.30;;;;;;;;;;5018966;28;20041;-86
2023/10/28 02:36:39;;;;;;;0.20;0.10;;;;;;;;;;5010970;28;20045;-84
2023/10/28 02:39:06;;;;;;;0.20;0.10;;;;;;;;;;5014622;28;20368;-84
2023/10/28 02:41:32;;;;;;;0.20;0.10;;;;;;;;;;5022831;28;20501;-84
2023/10/28 02:43:58;;;;;;;0.20;0.10;;;;;;;;;;5023264;28;20041;-85
2023/10/28 02:46:28;;;;;;;1.00;0.20;;;;;;;;;;5021955;28;20124;-84
2023/10/28 02:48:54;;;;;;;0.20;0.00;;;;;;;;;;5024307;28;20044;-84
2023/10/28 02:51:20;;;;;;;0.35;0.15;;;;;;;;;;5006926;28;20048;-86
2023/10/28 02:53:46;;;;;;;0.20;0.00;;;;;;;;;;5011591;28;20045;-85
2023/10/28 02:56:15;;;;;;;0.20;0.15;;;;;;;;;;5005954;28;20045;-85
2023/10/28 02:58:41;;;;;;;0.20;0.10;;;;;;;;;;5024036;28;20048;-85
2023/10/28 03:01:08;;;;;;;0.20;0.17;;;;;;;;;;5009761;28;20500;-84
2023/10/28 03:03:34;;;;;;;1.98;0.28;;;;;;;;;;5013687;28;20525;-84
2023/10/28 03:06:00;;;;;;;0.20;0.10;;;;;;;;;;5006921;28;20624;-84
2023/10/28 03:08:26;;;;;;;0.20;0.10;;;;;;;;;;5012130;28;20043;-85
2023/10/28 03:10:52;;;;;;;0.20;0.00;;;;;;;;;;5013293;28;20542;-85
2023/10/28 03:13:18;;;;;;;0.55;0.30;;;;;;;;;;5006617;28;20044;-84
2023/10/28 03:15:46;;;;;;;0.38;0.38;;;;;;;;;;5001936;28;20040;-85
2023/10/28 03:18:12;;;;;;;0.20;0.00;;;;;;;;;;5011810;28;20033;-85
2023/10/28 03:20:39;;;;;;;0.20;0.10;;;;;;;;;;5023505;28;20036;-86
2023/10/28 03:23:05;;;;;;;0.20;0.00;;;;;;;;;;5010687;28;20045;-85
2023/10/28 03:25:32;;;;;;;0.35;0.10;;;;;;;;;;5023562;28;20037;-85
2023/10/28 03:28:00;;;;;;;0.20;0.10;;;;;;;;;;5021810;28;20501;-86
2023/10/28 03:30:26;;;;;;;0.38;0.35;;;;;;;;;;5010225;28;20047;-85
2023/10/28 03:32:52;;;;;;;0.20;0.05;;;;;;;;;;5024979;28;20041;-85
2023/10/28 03:35:18;;;;;;;0.20;0.10;;;;;;;;;;5007197;28;20116;-86
2023/10/28 03:37:44;;;;;;;0.20;0.00;;;;;;;;;;5010742;28;20040;-86
2023/10/28 03:40:11;;;;;;;0.25;0.15;;;;;;;;;;5023971;28;20029;-85
2023/10/28 03:42:37;;;;;;;0.45;0.45;;;;;;;;;;5026483;28;20393;-85
2023/10/28 03:45:04;;;;;;;0.20;0.10;;;;;;;;;;5009475;28;20045;-86
2023/10/28 03:47:30;;;;;;;0.60;0.22;;;;;;;;;;5022375;28;20117;-86
2023/10/28 03:50:04;;;;;;;0.30;0.30;;;;;;;;;;5006170;23;20059;-86
2023/10/28 03:52:50;;;;;;;0.20;0.00;;;;;;;;;;4989803;28;20046;-85
2023/10/28 03:55:23;;;;;;;0.20;0.10;;;;;;;;;;4977814;28;20517;-85
2023/10/28 04:07:40;;;;;;;0.20;0.08;;;;;;;;;;5000617;28;20049;-85
2023/10/28 04:10:46;;;;;;;0.20;0.00;;;;;;;;;;5005293;28;20053;-86
2023/10/28 04:13:49;;;;;;;0.38;0.30;;;;;;;;;;4985066;28;20515;-85
2023/10/28 04:16:18;;;;;;;0.35;0.32;;;;;;;;;;4990070;28;20421;-86
2023/10/28 04:18:48;;;;;;;0.20;0.10;;;;;;;;;;4993595;28;20041;-84
2023/10/28 04:25:08;;;;;;;0.38;0.13;;;;;;;;;;4922105;28;20046;-84
2023/10/28 04:27:48;;;;;;;0.20;0.10;;;;;;;;;;4939070;28;20078;-85
2023/10/28 04:30:20;;;;;;;2.15;0.68;;;;;;;;;;4928719;28;20058;-86
2023/10/28 04:36:27;;;;;;;0.20;0.10;;;;;;;;;;4982496;28;20081;-86
2023/10/28 04:39:03;;;;;;;0.20;0.00;;;;;;;;;;4967277;28;20097;-87
2023/10/28 04:41:54;;;;;;;0.20;0.00;;;;;;;;;;4962613;28;20200;-85
2023/10/28 04:45:04;;;;;;;0.20;0.00;;;;;;;;;;4989839;28;20107;-85
2023/10/28 04:48:03;;;;;;;0.20;0.10;;;;;;;;;;5003710;28;20095;-86
2023/10/28 04:50:43;;;;;;;0.20;0.10;;;;;;;;;;4994217;28;20037;-85
2023/10/28 04:53:23;;;;;;;0.30;0.22;;;;;;;;;;4991825;28;20301;-87
2023/10/28 04:55:49;;;;;;;0.20;0.10;;;;;;;;;;4991525;28;20414;-86
2023/10/28 04:58:29;;;;;;;0.40;0.30;;;;;;;;;;4987370;28;20049;-86
2023/10/28 05:04:27;;;;;;;;;;;;;;;;;;;;;
2023/10/28 05:06:59;;;;;;;0.38;0.38;;;;;;;;;;5006383;28;20056;-84
2023/10/28 05:09:53;;;;;;;0.63;0.57;;;;;;;;;;5006883;28;20073;-85
2023/10/28 05:12:25;;;;;;;0.20;0.10;;;;;;;;;;5006613;28;20332;-85
2023/10/28 05:15:00;;;;;;;0.20;0.00;;;;;;;;;;4985027;28;20372;-85
2023/10/28 05:20:08;;;;;;;1.45;0.40;;;;;;;;;;5036875;23;20107;-85
2023/10/28 05:22:52;;;;;;;0.30;0.30;;;;;;;;;;5009643;28;20045;-85
2023/10/28 05:28:25;;;;;;;0.20;0.10;;;;;;;;;;5040400;28;20037;-85
2023/10/28 05:31:28;;;;;;;0.20;0.05;;;;;;;;;;5040787;28;20041;-84
2023/10/28 05:34:19;;;;;;;0.20;0.10;;;;;;;;;;5022510;28;20037;-87
2023/10/28 05:36:45;;;;;;;0.20;0.10;;;;;;;;;;5001179;28;20059;-86
2023/10/28 05:39:11;;;;;;;0.20;0.10;;;;;;;;;;5025072;23;20076;-82
2023/10/28 05:41:37;;;;;;;0.20;0.10;;;;;;;;;;5016938;28;20151;-83
2023/10/28 05:44:04;;;;;;;0.20;0.00;;;;;;;;;;5023360;28;20067;-82
2023/10/28 05:46:30;;;;;;;0.20;0.10;;;;;;;;;;5009600;28;20124;-81
2023/10/28 05:48:56;;;;;;;0.20;0.10;;;;;;;;;;5023443;28;20119;-83
2023/10/28 05:51:23;;;;;;;0.20;0.10;;;;;;;;;;5010202;28;20072;-83
2023/10/28 05:53:49;;;;;;;0.20;0.10;;;;;;;;;;5036997;28;20044;-82
2023/10/28 05:56:17;;;;;;;0.20;0.10;;;;;;;;;;5008423;28;20052;-84
2023/10/28 05:58:43;;;;;;;0.20;0.10;;;;;;;;;;5018774;28;20049;-83
2023/10/28 06:01:13;;;;;;;0.20;0.10;;;;;;;;;;5019995;28;20040;-82
2023/10/28 06:03:39;;;;;;;0.20;0.10;;;;;;;;;;5016701;28;20094;-82
2023/10/28 06:06:05;;;;;;;0.43;0.43;;;;;;;;;;5018023;28;20147;-82
2023/10/28 06:08:31;;;;;;;0.20;0.10;;;;;;;;;;5017815;28;20323;-82
2023/10/28 06:10:58;;;;;;;0.20;0.10;;;;;;;;;;5032641;28;20087;-83
2023/10/28 06:13:23;;;;;;;0.20;0.00;;;;;;;;;;5025472;28;20032;-82
2023/10/28 06:15:49;;;;;;;0.20;0.10;;;;;;;;;;5029786;28;20052;-82
2023/10/28 06:18:19;;;;;;;0.20;0.10;;;;;;;;;;5013756;28;20044;-81
2023/10/28 06:20:47;;;;;;;0.28;0.20;;;;;;;;;;5027966;28;20080;-81
2023/10/28 06:23:15;;;;;;;0.20;0.10;;;;;;;;;;5032447;28;20044;-82
2023/10/28 06:25:41;;;;;;;0.47;0.25;;;;;;;;;;5013859;28;20028;-82
2023/10/28 06:28:08;;;;;;;0.60;0.28;;;;;;;;;;5027697;28;20037;-83
2023/10/28 06:30:34;;;;;;;0.25;0.10;;;;;;;;;;5015361;28;20068;-81
2023/10/28 06:33:02;;;;;;;0.20;0.00;;;;;;;;;;5015046;28;20171;-82
2023/10/28 06:35:30;;;;;;;0.20;0.15;;;;;;;;;;5027279;28;20044;-82
2023/10/28 06:37:56;;;;;;;0.20;0.10;;;;;;;;;;5026613;28;20036;-81
2023/10/28 06:40:22;;;;;;;0.20;0.00;;;;;;;;;;5038481;28;20033;-83
2023/10/28 06:42:48;;;;;;;0.20;0.10;;;;;;;;;;5039652;28;20488;-81
2023/10/28 06:45:14;;;;;;;0.20;0.00;;;;;;;;;;5034547;28;20045;-83
2023/10/28 06:47:41;;;;;;;0.20;0.20;;;;;;;;;;5019644;28;20147;-84
2023/10/28 06:50:07;;;;;;;0.20;0.10;;;;;;;;;;5022481;28;20072;-82
2023/10/28 06:52:33;;;;;;;0.20;0.20;;;;;;;;;;5037785;28;20068;-83
2023/10/28 06:55:00;;;;;;;0.20;0.00;;;;;;;;;;5037122;28;20050;-84
2023/10/28 06:57:27;;;;;;;0.25;0.20;;;;;;;;;;5036696;28;20037;-82
2023/10/28 06:59:53;;;;;;;0.20;0.00;;;;;;;;;;5019246;28;20032;-81
2023/10/28 07:02:20;;;;;;;0.20;0.10;;;;;;;;;;5015714;28;20037;-83
2023/10/28 07:04:47;;;;;;;0.20;0.10;;;;;;;;;;5018230;28;20033;-84
2023/10/28 07:07:14;;;;;;;0.30;0.25;;;;;;;;;;5032427;28;20032;-83
2023/10/28 07:09:43;;;;;;;0.20;0.10;;;;;;;;;;5018053;28;20532;-83
2023/10/28 07:12:09;;;;;;;0.40;0.40;;;;;;;;;;5033115;28;20049;-84
2023/10/28 07:14:35;;;;;;;0.20;0.00;;;;;;;;;;5032085;28;20041;-81
2023/10/28 07:17:01;;;;;;;0.20;0.00;;;;;;;;;;5031883;28;20515;-84
2023/10/28 07:19:27;;;;;;;0.20;0.10;;;;;;;;;;5030050;28;20372;-81
2023/10/28 07:21:53;;;;;;;0.20;0.10;;;;;;;;;;5032099;28;20114;-83
2023/10/28 07:24:20;;;;;;;0.20;0.10;;;;;;;;;;5022913;28;20501;-84
2023/10/28 07:26:46;;;;;;;0.47;0.22;;;;;;;;;;5026099;28;20505;-81
2023/10/28 07:29:12;;;;;;;0.20;0.00;;;;;;;;;;5027993;28;20521;-82
2023/10/28 07:31:38;;;;;;;0.30;0.17;;;;;;;;;;5026337;28;20033;-81
2023/10/28 07:34:08;;;;;;;0.20;0.00;;;;;;;;;;5027014;28;20478;-83
2023/10/28 07:36:34;;;;;;;0.20;0.10;;;;;;;;;;5010350;28;20059;-81
2023/10/28 07:39:03;;;;;;;0.20;0.00;;;;;;;;;;5023259;28;20353;-81
2023/10/28 07:41:29;;;;;;;0.20;0.00;;;;;;;;;;5026162;28;20037;-81
2023/10/28 07:43:56;;;;;;;0.20;0.05;;;;;;;;;;5024538;28;20033;-81
2023/10/28 07:46:22;;;;;;;0.20;0.20;;;;;;;;;;5013833;28;20029;-83
2023/10/28 07:48:48;;;;;;;0.20;0.10;;;;;;;;;;5019532;28;20072;-81
2023/10/28 07:51:17;;;;;;;0.20;0.00;;;;;;;;;;5014903;28;20089;-80
2023/10/28 07:53:44;;;;;;;0.20;0.10;;;;;;;;;;5030229;28;20045;-81
2023/10/28 07:56:10;;;;;;;0.20;0.00;;;;;;;;;;5030278;28;20033;-81
2023/10/28 07:58:36;;;;;;;0.20;0.10;;;;;;;;;;5029669;28;20040;-82
2023/10/28 08:01:03;;;;;;;0.20;0.10;;;;;;;;;;5028896;28;20048;-80
2023/10/28 08:03:30;;;;;;;0.52;0.20;;;;;;;;;;5016059;28;20037;-82
2023/10/28 08:05:56;;;;;;;0.20;0.00;;;;;;;;;;5023943;28;20061;-80
2023/10/28 08:08:22;;;;;;;0.30;0.20;;;;;;;;;;5023582;28;20029;-81
2023/10/28 08:10:48;;;;;;;0.20;0.00;;;;;;;;;;5019763;28;20464;-83
2023/10/28 08:13:14;;;;;;;0.20;0.10;;;;;;;;;;5032550;28;20072;-82
2023/10/28 08:15:40;;;;;;;0.20;0.10;;;;;;;;;;5010158;28;20492;-81
2023/10/28 08:18:07;;;;;;;0.20;0.00;;;;;;;;;;5025305;28;20041;-81
2023/10/28 08:20:33;;;;;;;0.20;0.00;;;;;;;;;;5009663;28;20494;-80
2023/10/28 08:22:59;;;;;;;1.23;0.30;;;;;;;;;;5028685;28;20036;-80
2023/10/28 08:25:25;;;;;;;0.20;0.05;;;;;;;;;;5011184;28;20524;-82
2023/10/28 08:27:52;;;;;;;0.20;0.10;;;;;;;;;;5027843;28;20040;-81
2023/10/28 08:30:19;;;;;;;0.20;0.10;;;;;;;;;;5028419;28;20069;-80
2023/10/28 08:32:46;;;;;;;0.20;0.08;;;;;;;;;;5006182;28;20045;-81
2023/10/28 08:35:12;;;;;;;0.20;0.10;;;;;;;;;;5027294;28;20072;-81
2023/10/28 08:37:39;;;;;;;0.20;0.00;;;;;;;;;;5025562;28;20044;-82
2023/10/28 08:40:08;;;;;;;0.20;0.00;;;;;;;;;;5024335;28;20094;-81
2023/10/28 08:42:35;;;;;;;0.20;0.00;;;;;;;;;;5010452;28;20048;-81
2023/10/28 08:45:03;;;;;;;0.20;0.10;;;;;;;;;;5022166;28;20093;-81
2023/10/28 08:47:32;;;;;;;0.20;0.20;;;;;;;;;;5024151;28;20364;-79
2023/10/28 08:49:59;;;;;;;0.20;0.10;;;;;;;;;;5021142;28;20048;-82
2023/10/28 08:52:25;;;;;;;0.20;0.10;;;;;;;;;;5023013;28;20114;-81
2023/10/28 08:54:52;;;;;;;0.30;0.30;;;;;;;;;;5023154;28;20059;-81
2023/10/28 08:57:18;;;;;;;0.20;0.00;;;;;;;;;;5025842;28;20036;-82
2023/10/28 08:59:44;;;;;;;0.20;0.10;;;;;;;;;;5023359;28;20133;-81
2023/10/28 09:02:11;;;;;;;0.20;0.00;;;;;;;;;;5009448;28;20928;-80
2023/10/28 09:04:37;;;;;;;0.20;0.10;;;;;;;;;;5007353;28;20452;-81
2023/10/28 09:07:05;;;;;;;0.20;0.00;;;;;;;;;;5031200;28;20033;-81
2023/10/28 09:09:31;;;;;;;0.20;0.10;;;;;;;;;;5030232;28;20047;-81
2023/10/28 09:11:57;;;;;;;0.20;0.20;;;;;;;;;;5015634;28;20037;-81
2023/10/28 09:14:24;;;;;;;0.20;0.10;;;;;;;;;;5028067;28;20041;-81
2023/10/28 09:16:50;;;;;;;0.20;0.10;;;;;;;;;;5014020;28;20067;-81
2023/10/28 09:19:20;;;;;;;0.20;0.00;;;;;;;;;;5036773;28;20047;-82
2023/10/28 09:21:48;;;;;;;0.20;0.00;;;;;;;;;;5020471;28;20033;-81
2023/10/28 09:24:14;;;;;;;0.20;0.03;;;;;;;;;;5022847;28;20060;-81
2023/10/28 09:26:40;;;;;;;0.20;0.10;;;;;;;;;;5033682;28;20041;-82
2023/10/28 09:29:06;;;;;;;0.20;0.10;;;;;;;;;;5015152;28;20037;-82
2023/10/28 09:31:33;;;;;;;0.20;0.00;;;;;;;;;;5030147;28;20048;-81
2023/10/28 09:34:00;;;;;;;0.20;0.17;;;;;;;;;;5031148;28;20055;-81
2023/10/28 09:36:26;;;;;;;0.20;0.00;;;;;;;;;;5017747;28;20322;-81
2023/10/28 09:38:53;;;;;;;0.30;0.20;;;;;;;;;;5018764;28;20064;-81
2023/10/28 09:41:19;;;;;;;0.20;0.10;;;;;;;;;;5015510;28;20086;-81
2023/10/28 09:43:45;;;;;;;0.20;0.10;;;;;;;;;;5032027;28;20036;-82
2023/10/28 09:46:11;;;;;;;0.85;0.30;;;;;;;;;;5018552;28;20082;-81
2023/10/28 09:48:39;;;;;;;0.20;0.00;;;;;;;;;;5034624;28;20041;-82
2023/10/28 09:51:05;;;;;;;0.40;0.20;;;;;;;;;;5030472;28;20040;-80
2023/10/28 09:53:34;;;;;;;0.20;0.00;;;;;;;;;;5031344;28;20071;-81
2023/10/28 09:56:02;;;;;;;0.20;0.10;;;;;;;;;;5014519;28;20033;-81
2023/10/28 09:58:31;;;;;;;0.20;0.10;;;;;;;;;;5017422;28;20053;-81
2023/10/28 10:01:04;;;;;;;0.20;0.10;;;;;;;;;;5015563;28;20087;-81
2023/10/28 10:03:31;;;;;;;0.20;0.00;;;;;;;;;;5017809;28;20060;-81
2023/10/28 10:05:57;;;;;;;0.20;0.13;;;;;;;;;;5014558;28;20582;-82
2023/10/28 10:08:23;;;;;;;0.20;0.00;;;;;;;;;;5026948;28;20060;-80
2023/10/28 10:10:50;;;;;;;0.20;0.17;;;;;;;;;;5013843;28;20041;-81
2023/10/28 10:13:16;;;;;;;0.20;0.00;;;;;;;;;;5026998;28;20037;-81
2023/10/28 10:15:53;;;;;;;0.20;0.00;;;;;;;;;;5031878;28;20138;-82
2023/10/28 10:18:30;;;;;;;0.20;0.10;;;;;;;;;;5011667;28;20420;-81
2023/10/28 10:21:07;;;;;;;0.20;0.00;;;;;;;;;;5012989;28;20033;-83
2023/10/28 10:23:47;;;;;;;0.20;0.10;;;;;;;;;;5032587;28;20037;-82
2023/10/28 10:26:23;;;;;;;0.20;0.10;;;;;;;;;;5015184;28;20043;-81
2023/10/28 10:28:51;;;;;;;0.20;0.17;;;;;;;;;;5028036;28;20536;-80
2023/10/28 10:31:19;;;;;;;0.20;0.10;;;;;;;;;;5033021;28;20563;-81
2023/10/28 10:33:45;;;;;;;0.20;0.10;;;;;;;;;;5013695;28;20049;-82
2023/10/28 10:36:25;;;;;;;0.20;0.10;;;;;;;;;;5026464;28;20341;-81
2023/10/28 10:38:52;;;;;;;0.20;0.00;;;;;;;;;;5029600;28;20596;-82
2023/10/28 10:41:27;;;;;;;0.20;0.08;;;;;;;;;;5030723;28;20056;-80
2023/10/28 10:43:53;;;;;;;0.20;0.00;;;;;;;;;;5032004;28;20128;-82
2023/10/28 10:46:19;;;;;;;0.20;0.10;;;;;;;;;;5011117;28;20199;-81
2023/10/28 10:48:47;;;;;;;0.20;0.00;;;;;;;;;;5032896;28;20041;-81
2023/10/28 10:51:15;;;;;;;0.20;0.08;;;;;;;;;;5014677;28;20041;-81
2023/10/28 10:53:42;;;;;;;0.20;0.00;;;;;;;;;;5031798;28;20115;-81
2023/10/28 10:56:17;;;;;;;0.20;0.00;;;;;;;;;;5026492;28;20037;-81
2023/10/28 10:58:43;;;;;;;0.20;0.00;;;;;;;;;;5030030;28;20043;-81
2023/10/28 11:01:10;;;;;;;0.40;0.40;;;;;;;;;;5024518;28;20120;-83
2023/10/28 11:03:36;;;;;;;0.25;0.20;;;;;;;;;;5026760;28;20493;-82
2023/10/28 11:06:03;;;;;;;0.20;0.10;;;;;;;;;;5027507;28;20384;-82
2023/10/28 11:08:29;;;;;;;0.20;0.10;;;;;;;;;;5030439;28;20116;-83
2023/10/28 11:10:55;;;;;;;0.20;0.10;;;;;;;;;;5010453;28;20128;-82
2023/10/28 11:13:22;;;;;;;0.20;0.10;;;;;;;;;;5031909;28;20037;-82
2023/10/28 11:15:49;;;;;;;0.20;0.00;;;;;;;;;;5029374;28;20053;-82
2023/10/28 11:18:15;;;;;;;0.20;0.00;;;;;;;;;;5023855;28;20486;-82
2023/10/28 11:20:42;;;;;;;0.30;0.20;;;;;;;;;;5028422;28;20041;-82
2023/10/28 11:23:08;;;;;;;0.20;0.10;;;;;;;;;;5025394;28;20094;-80
2023/10/28 11:25:35;;;;;;;0.20;0.10;;;;;;;;;;5014640;28;20051;-82
2023/10/28 11:28:09;;;;;;;0.20;0.10;;;;;;;;;;5018887;28;20219;-82
2023/10/28 11:30:35;;;;;;;0.20;0.00;;;;;;;;;;5035035;28;20095;-81
2023/10/28 11:33:07;;;;;;;0.20;0.10;;;;;;;;;;5014069;28;20040;-83
2023/10/28 11:35:34;;;;;;;0.20;0.10;;;;;;;;;;5016333;28;20532;-81
2023/10/28 11:38:02;;;;;;;0.20;0.10;;;;;;;;;;5031426;28;20037;-81
2023/10/28 11:40:38;;;;;;;0.20;0.00;;;;;;;;;;5033098;22;20092;-85
2023/10/28 11:43:17;;;;;;;0.20;0.10;;;;;;;;;;5002576;28;20038;-87
2023/10/28 11:45:43;;;;;;;0.20;0.10;;;;;;;;;;5008027;28;20037;-83
2023/10/28 11:48:14;;;;;;;0.20;0.10;;;;;;;;;;5004213;28;20116;-85
2023/10/28 11:50:57;;;;;;;0.30;0.20;;;;;;;;;;4993775;28;20533;-85
2023/10/28 11:53:37;;;;;;;0.20;0.10;;;;;;;;;;4982956;28;20053;-85
2023/10/28 11:56:07;;;;;;;0.20;0.00;;;;;;;;;;4987350;28;20448;-85
2023/10/28 11:58:33;;;;;;;0.20;0.00;;;;;;;;;;4994102;28;20688;-85
2023/10/28 12:03:59;;;;;;;0.20;0.10;;;;;;;;;;5008475;28;20049;-85
2023/10/28 12:06:28;;;;;;;0.20;0.05;;;;;;;;;;4985745;28;20065;-84
2023/10/28 12:08:58;;;;;;;0.20;0.00;;;;;;;;;;4989550;28;20548;-84
2023/10/28 12:11:27;;;;;;;0.20;0.10;;;;;;;;;;4982608;28;20456;-86
2023/10/28 12:13:58;;;;;;;0.20;0.10;;;;;;;;;;4987812;28;20123;-85
2023/10/28 12:16:47;;;;;;;0.20;0.00;;;;;;;;;;5021424;28;20067;-85
2023/10/28 12:19:16;;;;;;;0.20;0.10;;;;;;;;;;4990150;28;20487;-85
2023/10/28 12:21:48;;;;;;;0.20;0.10;;;;;;;;;;4991948;28;20057;-83
2023/10/28 12:24:26;;;;;;;0.20;0.10;;;;;;;;;;4992382;28;20394;-86
2023/10/28 12:26:53;;;;;;;0.20;0.00;;;;;;;;;;4991527;28;20045;-83
2023/10/28 12:29:48;;;;;;;;;;;;;;;;;;;;;
2023/10/28 12:32:20;;;;;;;0.20;0.00;;;;;;;;;;5001682;28;20455;-85
2023/10/28 12:34:55;;;;;;;0.20;0.00;;;;;;;;;;4988246;28;20417;-83
2023/10/28 12:37:28;;;;;;;0.20;0.10;;;;;;;;;;5006179;28;20041;-85
2023/10/28 12:39:57;;;;;;;0.20;0.10;;;;;;;;;;5001172;28;20062;-85
2023/10/28 12:42:36;;;;;;;0.20;0.00;;;;;;;;;;4986341;28;20197;-86
2023/10/28 12:45:14;;;;;;;0.20;0.10;;;;;;;;;;4985185;28;20402;-87
2023/10/28 12:47:40;;;;;;;0.20;0.10;;;;;;;;;;4985822;28;20579;-84
2023/10/28 12:50:12;;;;;;;0.20;0.10;;;;;;;;;;4993223;28;20081;-84
2023/10/28 12:52:38;;;;;;;0.20;0.10;;;;;;;;;;4992338;28;20049;-85
2023/10/28 12:55:23;;;;;;;0.20;0.00;;;;;;;;;;5000402;28;20167;-84
2023/10/28 12:57:52;;;;;;;0.20;0.00;;;;;;;;;;4984399;28;21079;-84
2023/10/28 13:00:21;;;;;;;0.20;0.00;;;;;;;;;;4985704;28;20033;-84
2023/10/28 13:02:52;;;;;;;0.20;0.05;;;;;;;;;;4990601;28;20041;-85
2023/10/28 13:05:20;;;;;;;0.20;0.05;;;;;;;;;;4988856;28;20053;-85
2023/10/28 13:07:46;;;;;;;0.20;0.00;;;;;;;;;;4984519;28;20371;-86
2023/10/28 13:10:12;;;;;;;0.20;0.10;;;;;;;;;;4983820;28;20590;-85
2023/10/28 13:12:43;;;;;;;0.20;0.10;;;;;;;;;;4982322;28;20383;-85
2023/10/28 13:15:10;;;;;;;0.20;0.00;;;;;;;;;;4987380;28;20050;-83
2023/10/28 13:17:40;;;;;;;0.20;0.15;;;;;;;;;;4985986;28;20048;-84
2023/10/28 13:20:41;;;;;;;0.20;0.00;;;;;;;;;;4999407;28;20041;-85
2023/10/28 13:23:12;;;;;;;0.20;0.10;;;;;;;;;;4995124;28;20521;-85
2023/10/28 13:25:43;;;;;;;0.20;0.10;;;;;;;;;;4997219;28;20045;-85
2023/10/28 13:28:15;;;;;;;0.20;0.10;;;;;;;;;;5020784;28;20464;-85
2023/10/28 13:31:04;;;;;;;0.20;0.03;;;;;;;;;;4999805;28;20522;-85
2023/10/28 13:33:31;;;;;;;0.20;0.10;;;;;;;;;;5032771;28;20087;-83
2023/10/28 13:35:57;;;;;;;0.20;0.00;;;;;;;;;;5011093;28;20155;-84
2023/10/28 13:38:49;;;;;;;0.22;0.10;;;;;;;;;;5004893;28;20548;-86
2023/10/28 13:41:15;;;;;;;0.30;0.20;;;;;;;;;;5020855;28;20094;-85
2023/10/28 13:43:50;;;;;;;0.20;0.10;;;;;;;;;;5008438;28;20072;-85
2023/10/28 13:46:22;;;;;;;0.20;0.00;;;;;;;;;;5024941;28;20072;-85
2023/10/28 13:48:57;;;;;;;0.20;0.10;;;;;;;;;;5009624;28;20505;-84
2023/10/28 13:51:27;;;;;;;0.20;0.00;;;;;;;;;;5004642;28;20064;-86
2023/10/28 13:53:53;;;;;;;0.20;0.08;;;;;;;;;;5008652;28;20064;-85
2023/10/28 13:56:22;;;;;;;0.20;0.10;;;;;;;;;;5013387;28;20140;-85
2023/10/28 13:58:48;;;;;;;0.20;0.05;;;;;;;;;;5007789;28;20044;-86
2023/10/28 14:01:26;;;;;;;0.20;0.10;;;;;;;;;;5007054;28;20119;-85
2023/10/28 14:03:57;;;;;;;0.20;0.10;;;;;;;;;;5007618;28;20049;-84
2023/10/28 14:06:32;;;;;;;0.20;0.03;;;;;;;;;;5004595;28;20033;-85
2023/10/28 14:08:59;;;;;;;0.20;0.00;;;;;;;;;;5009954;28;20041;-84
2023/10/28 14:11:26;;;;;;;0.20;0.17;;;;;;;;;;5006781;28;20048;-84
2023/10/28 14:14:00;;;;;;;0.20;0.10;;;;;;;;;;5020986;28;20040;-84
2023/10/28 14:16:47;;;;;;;0.20;0.10;;;;;;;;;;5026212;28;20508;-84
2023/10/28 14:19:19;;;;;;;0.20;0.10;;;;;;;;;;5018157;28;20063;-84
2023/10/28 14:21:54;;;;;;;0.47;0.47;;;;;;;;;;5016161;28;20048;-86
2023/10/28 14:24:20;;;;;;;0.20;0.00;;;;;;;;;;5017423;28;20045;-85
2023/10/28 14:29:47;;;;;;;0.22;0.13;;;;;;;;;;5028684;28;20076;-84
2023/10/28 14:32:16;;;;;;;0.20;0.00;;;;;;;;;;5013267;28;20036;-86
2023/10/28 14:34:51;;;;;;;0.20;0.05;;;;;;;;;;5007047;28;20441;-84
2023/10/28 14:37:20;;;;;;;0.20;0.10;;;;;;;;;;5009844;28;20044;-84
2023/10/28 14:39:51;;;;;;;0.20;0.10;;;;;;;;;;5011409;28;20044;-83
2023/10/28 14:42:20;;;;;;;0.20;0.10;;;;;;;;;;5014678;28;20608;-86
2023/10/28 14:44:49;;;;;;;0.20;0.08;;;;;;;;;;5028546;28;20102;-85
2023/10/28 14:47:19;;;;;;;0.20;0.00;;;;;;;;;;5013482;28;20045;-84
2023/10/28 14:49:51;;;;;;;0.20;0.00;;;;;;;;;;5014068;28;20084;-85
2023/10/28 14:52:23;;;;;;;0.20;0.05;;;;;;;;;;5028527;28;20051;-84
2023/10/28 14:55:13;;;;;;;0.20;0.00;;;;;;;;;;5013804;28;20090;-84
2023/10/28 14:57:45;;;;;;;0.20;0.13;;;;;;;;;;5024487;28;20076;-83
2023/10/28 15:00:17;;;;;;;0.28;0.08;;;;;;;;;;5013079;28;20049;-84
2023/10/28 15:02:55;;;;;;;0.20;0.00;;;;;;;;;;5027825;28;20049;-84
2023/10/28 15:05:27;;;;;;;0.20;0.10;;;;;;;;;;5026800;28;20064;-85
2023/10/28 15:07:53;;;;;;;0.20;0.05;;;;;;;;;;5023538;28;20047;-85
2023/10/28 15:10:21;;;;;;;0.20;0.10;;;;;;;;;;5011345;28;20045;-85
2023/10/28 15:12:48;;;;;;;0.20;0.00;;;;;;;;;;5010681;28;20044;-85
2023/10/28 15:15:20;;;;;;;0.20;0.00;;;;;;;;;;5009845;28;20041;-84
2023/10/28 15:17:51;;;;;;;0.20;0.10;;;;;;;;;;5013494;28;20037;-85
2023/10/28 15:20:17;;;;;;;0.20;0.10;;;;;;;;;;5015862;28;20119;-84
2023/10/28 15:22:44;;;;;;;0.20;0.10;;;;;;;;;;5012492;28;20124;-84
2023/10/28 15:25:12;;;;;;;0.20;0.03;;;;;;;;;;5008633;28;20132;-84
2023/10/28 15:27:44;;;;;;;0.20;0.00;;;;;;;;;;5010280;28;20049;-84
2023/10/28 15:30:11;;;;;;;0.20;0.00;;;;;;;;;;5029263;28;20587;-84
2023/10/28 15:32:37;;;;;;;0.20;0.10;;;;;;;;;;5010462;28;20045;-83